sensor_id;sensor_type;location;lat;lon;timestamp;temperature;humidity
5130;DHT22;2583;50.946;6.954;2023-07-31T00:01:43;17.80;99.90
5130;DHT22;2583;50.946;6.954;2023-07-31T00:04:10;17.80;99.90
5130;DHT22;2583;50.946;6.954;2023-07-31T00:06:37;17.80;99.90
5130;DHT22;2583;50.946;6.954;2023-07-31T00:09:04;17.80;99.90
5130;DHT22;2583;50.946;6.954;2023-07-31T00:11:31;17.80;99.90
5130;DHT22;2583;50.946;6.954;2023-07-31T00:13:58;17.80;99.90
5130;DHT22;2583;50.946;6.954;2023-07-31T00:16:25;17.80;99.90
5130;DHT22;2583;50.946;6.954;2023-07-31T00:18:52;17.90;99.90
5130;DHT22;2583;50.946;6.954;2023-07-31T00:21:19;17.80;99.90
5130;DHT22;2583;50.946;6.954;2023-07-31T00:23:45;17.90;99.90
5130;DHT22;2583;50.946;6.954;2023-07-31T00:26:12;17.90;99.90
5130;DHT22;2583;50.946;6.954;2023-07-31T00:28:39;17.80;99.90
5130;DHT22;2583;50.946;6.954;2023-07-31T00:31:06;17.90;99.90
5130;DHT22;2583;50.946;6.954;2023-07-31T00:33:34;17.80;99.90
5130;DHT22;2583;50.946;6.954;2023-07-31T00:36:01;17.80;99.90
5130;DHT22;2583;50.946;6.954;2023-07-31T00:38:28;17.90;99.90
5130;DHT22;2583;50.946;6.954;2023-07-31T00:40:55;17.90;99.90
5130;DHT22;2583;50.946;6.954;2023-07-31T00:43:21;17.80;99.90
5130;DHT22;2583;50.946;6.954;2023-07-31T00:45:49;17.90;99.90
5130;DHT22;2583;50.946;6.954;2023-07-31T00:48:16;17.90;99.90
5130;DHT22;2583;50.946;6.954;2023-07-31T00:50:43;17.90;99.90
5130;DHT22;2583;50.946;6.954;2023-07-31T00:53:09;17.90;99.90
5130;DHT22;2583;50.946;6.954;2023-07-31T00:55:36;17.90;99.90
5130;DHT22;2583;50.946;6.954;2023-07-31T00:58:03;17.90;99.90
5130;DHT22;2583;50.946;6.954;2023-07-31T01:00:30;17.90;99.90
5130;DHT22;2583;50.946;6.954;2023-07-31T01:02:56;17.90;99.90
5130;DHT22;2583;50.946;6.954;2023-07-31T01:08:48;17.90;99.90
5130;DHT22;2583;50.946;6.954;2023-07-31T01:11:23;17.90;99.90
5130;DHT22;2583;50.946;6.954;2023-07-31T01:13:53;17.90;99.90
5130;DHT22;2583;50.946;6.954;2023-07-31T01:16:21;18.00;99.90
5130;DHT22;2583;50.946;6.954;2023-07-31T01:18:47;18.00;99.90
5130;DHT22;2583;50.946;6.954;2023-07-31T01:26:44;18.00;99.90
5130;DHT22;2583;50.946;6.954;2023-07-31T01:32:02;18.00;99.90
5130;DHT22;2583;50.946;6.954;2023-07-31T01:34:30;18.00;99.90
5130;DHT22;2583;50.946;6.954;2023-07-31T01:36:57;18.00;99.90
5130;DHT22;2583;50.946;6.954;2023-07-31T01:39:27;18.00;99.90
5130;DHT22;2583;50.946;6.954;2023-07-31T01:41:54;18.00;99.90
5130;DHT22;2583;50.946;6.954;2023-07-31T01:44:20;18.00;99.90
5130;DHT22;2583;50.946;6.954;2023-07-31T01:46:47;18.10;99.90
5130;DHT22;2583;50.946;6.954;2023-07-31T01:49:14;18.00;99.90
5130;DHT22;2583;50.946;6.954;2023-07-31T01:51:41;18.10;99.90
5130;DHT22;2583;50.946;6.954;2023-07-31T01:54:07;18.10;99.90
5130;DHT22;2583;50.946;6.954;2023-07-31T01:56:34;18.10;99.90
5130;DHT22;2583;50.946;6.954;2023-07-31T01:59:01;18.10;99.90
5130;DHT22;2583;50.946;6.954;2023-07-31T02:01:28;18.10;99.90
5130;DHT22;2583;50.946;6.954;2023-07-31T02:03:54;18.10;99.90
5130;DHT22;2583;50.946;6.954;2023-07-31T02:06:21;18.20;99.90
5130;DHT22;2583;50.946;6.954;2023-07-31T02:08:49;18.20;99.90
5130;DHT22;2583;50.946;6.954;2023-07-31T02:11:16;18.20;99.90
5130;DHT22;2583;50.946;6.954;2023-07-31T02:13:42;18.20;99.90
5130;DHT22;2583;50.946;6.954;2023-07-31T02:16:09;18.20;99.90
5130;DHT22;2583;50.946;6.954;2023-07-31T02:18:36;18.20;99.90
5130;DHT22;2583;50.946;6.954;2023-07-31T02:21:03;18.20;99.90
5130;DHT22;2583;50.946;6.954;2023-07-31T02:23:30;18.20;99.90
5130;DHT22;2583;50.946;6.954;2023-07-31T02:25:56;18.20;99.90
5130;DHT22;2583;50.946;6.954;2023-07-31T02:28:23;18.20;99.90
5130;DHT22;2583;50.946;6.954;2023-07-31T02:30:50;18.20;99.90
5130;DHT22;2583;50.946;6.954;2023-07-31T02:33:18;18.20;99.90
5130;DHT22;2583;50.946;6.954;2023-07-31T02:35:45;18.20;99.90
5130;DHT22;2583;50.946;6.954;2023-07-31T02:38:12;18.20;99.90
5130;DHT22;2583;50.946;6.954;2023-07-31T02:40:41;18.30;99.90
5130;DHT22;2583;50.946;6.954;2023-07-31T02:43:08;18.30;99.90
5130;DHT22;2583;50.946;6.954;2023-07-31T02:45:35;18.30;99.90
5130;DHT22;2583;50.946;6.954;2023-07-31T02:48:02;18.30;99.90
5130;DHT22;2583;50.946;6.954;2023-07-31T02:50:29;18.30;99.90
5130;DHT22;2583;50.946;6.954;2023-07-31T02:52:56;18.30;99.90
5130;DHT22;2583;50.946;6.954;2023-07-31T02:55:23;18.30;99.90
5130;DHT22;2583;50.946;6.954;2023-07-31T02:57:49;18.30;99.90
5130;DHT22;2583;50.946;6.954;2023-07-31T03:00:16;18.30;99.90
5130;DHT22;2583;50.946;6.954;2023-07-31T03:02:43;18.30;99.90
5130;DHT22;2583;50.946;6.954;2023-07-31T03:05:10;18.40;99.90
5130;DHT22;2583;50.946;6.954;2023-07-31T03:07:37;18.30;99.90
5130;DHT22;2583;50.946;6.954;2023-07-31T03:10:04;18.30;99.90
5130;DHT22;2583;50.946;6.954;2023-07-31T03:12:31;18.30;99.90
5130;DHT22;2583;50.946;6.954;2023-07-31T03:14:58;18.30;99.90
5130;DHT22;2583;50.946;6.954;2023-07-31T03:17:25;18.40;99.90
5130;DHT22;2583;50.946;6.954;2023-07-31T03:19:52;18.40;99.90
5130;DHT22;2583;50.946;6.954;2023-07-31T03:22:18;18.40;99.90
5130;DHT22;2583;50.946;6.954;2023-07-31T03:24:45;18.40;99.90
5130;DHT22;2583;50.946;6.954;2023-07-31T03:27:12;18.40;99.90
5130;DHT22;2583;50.946;6.954;2023-07-31T03:29:39;18.50;99.90
5130;DHT22;2583;50.946;6.954;2023-07-31T03:32:06;18.50;99.90
5130;DHT22;2583;50.946;6.954;2023-07-31T03:34:33;18.50;99.90
5130;DHT22;2583;50.946;6.954;2023-07-31T03:37:00;18.50;99.90
5130;DHT22;2583;50.946;6.954;2023-07-31T03:39:27;18.50;99.90
5130;DHT22;2583;50.946;6.954;2023-07-31T03:41:54;18.50;99.90
5130;DHT22;2583;50.946;6.954;2023-07-31T03:44:20;18.50;99.90
5130;DHT22;2583;50.946;6.954;2023-07-31T03:46:47;18.50;99.90
5130;DHT22;2583;50.946;6.954;2023-07-31T03:49:14;18.50;99.90
5130;DHT22;2583;50.946;6.954;2023-07-31T03:51:41;18.40;99.90
5130;DHT22;2583;50.946;6.954;2023-07-31T03:54:08;18.40;99.90
5130;DHT22;2583;50.946;6.954;2023-07-31T03:56:35;18.40;99.90
5130;DHT22;2583;50.946;6.954;2023-07-31T03:59:02;18.40;99.90
5130;DHT22;2583;50.946;6.954;2023-07-31T04:01:28;18.40;99.90
5130;DHT22;2583;50.946;6.954;2023-07-31T04:03:55;18.40;99.90
5130;DHT22;2583;50.946;6.954;2023-07-31T04:06:22;18.40;99.90
5130;DHT22;2583;50.946;6.954;2023-07-31T04:08:49;18.40;99.90
5130;DHT22;2583;50.946;6.954;2023-07-31T04:11:16;18.40;99.90
5130;DHT22;2583;50.946;6.954;2023-07-31T04:13:42;18.40;99.90
5130;DHT22;2583;50.946;6.954;2023-07-31T04:16:09;18.40;99.90
5130;DHT22;2583;50.946;6.954;2023-07-31T04:18:37;18.30;99.90
5130;DHT22;2583;50.946;6.954;2023-07-31T04:21:04;18.30;99.90
5130;DHT22;2583;50.946;6.954;2023-07-31T04:23:31;18.30;99.90
5130;DHT22;2583;50.946;6.954;2023-07-31T04:25:57;18.40;99.90
5130;DHT22;2583;50.946;6.954;2023-07-31T04:28:24;18.40;99.90
5130;DHT22;2583;50.946;6.954;2023-07-31T04:30:52;18.40;99.90
5130;DHT22;2583;50.946;6.954;2023-07-31T04:33:20;18.50;99.90
5130;DHT22;2583;50.946;6.954;2023-07-31T04:35:53;18.50;99.90
5130;DHT22;2583;50.946;6.954;2023-07-31T04:38:21;18.50;99.90
5130;DHT22;2583;50.946;6.954;2023-07-31T04:40:49;18.50;99.90
5130;DHT22;2583;50.946;6.954;2023-07-31T04:43:16;18.50;99.90
5130;DHT22;2583;50.946;6.954;2023-07-31T04:45:45;18.50;99.90
5130;DHT22;2583;50.946;6.954;2023-07-31T04:48:14;18.60;99.90
5130;DHT22;2583;50.946;6.954;2023-07-31T04:50:41;18.60;99.90
5130;DHT22;2583;50.946;6.954;2023-07-31T04:53:07;18.60;99.90
5130;DHT22;2583;50.946;6.954;2023-07-31T04:55:34;18.70;99.90
5130;DHT22;2583;50.946;6.954;2023-07-31T04:58:01;18.70;99.90
5130;DHT22;2583;50.946;6.954;2023-07-31T05:00:28;18.70;99.90
5130;DHT22;2583;50.946;6.954;2023-07-31T05:02:55;18.80;99.90
5130;DHT22;2583;50.946;6.954;2023-07-31T05:05:22;18.80;99.90
5130;DHT22;2583;50.946;6.954;2023-07-31T05:07:48;18.80;99.90
5130;DHT22;2583;50.946;6.954;2023-07-31T05:10:15;18.90;99.90
5130;DHT22;2583;50.946;6.954;2023-07-31T05:12:43;18.90;99.90
5130;DHT22;2583;50.946;6.954;2023-07-31T05:15:10;19.00;99.90
5130;DHT22;2583;50.946;6.954;2023-07-31T05:17:37;19.00;99.90
5130;DHT22;2583;50.946;6.954;2023-07-31T05:20:04;19.00;99.90
5130;DHT22;2583;50.946;6.954;2023-07-31T05:22:31;19.00;99.90
5130;DHT22;2583;50.946;6.954;2023-07-31T05:24:58;19.10;99.90
5130;DHT22;2583;50.946;6.954;2023-07-31T05:27:25;19.20;99.90
5130;DHT22;2583;50.946;6.954;2023-07-31T05:29:51;19.20;99.90
5130;DHT22;2583;50.946;6.954;2023-07-31T05:32:18;19.20;99.90
5130;DHT22;2583;50.946;6.954;2023-07-31T05:34:45;19.20;99.90
5130;DHT22;2583;50.946;6.954;2023-07-31T05:37:11;19.30;99.90
5130;DHT22;2583;50.946;6.954;2023-07-31T05:39:38;19.30;99.90
5130;DHT22;2583;50.946;6.954;2023-07-31T05:42:05;19.30;99.90
5130;DHT22;2583;50.946;6.954;2023-07-31T05:44:32;19.30;99.90
5130;DHT22;2583;50.946;6.954;2023-07-31T05:46:59;19.30;99.90
5130;DHT22;2583;50.946;6.954;2023-07-31T05:49:25;19.30;99.90
5130;DHT22;2583;50.946;6.954;2023-07-31T05:51:52;19.30;99.90
5130;DHT22;2583;50.946;6.954;2023-07-31T05:54:19;19.30;99.90
5130;DHT22;2583;50.946;6.954;2023-07-31T05:56:46;19.30;99.90
5130;DHT22;2583;50.946;6.954;2023-07-31T05:59:12;19.30;99.90
5130;DHT22;2583;50.946;6.954;2023-07-31T06:01:40;19.30;99.90
5130;DHT22;2583;50.946;6.954;2023-07-31T06:04:06;19.30;99.90
5130;DHT22;2583;50.946;6.954;2023-07-31T06:06:34;19.30;99.90
5130;DHT22;2583;50.946;6.954;2023-07-31T06:09:00;19.30;99.90
5130;DHT22;2583;50.946;6.954;2023-07-31T06:11:27;19.30;99.90
5130;DHT22;2583;50.946;6.954;2023-07-31T06:13:54;19.30;99.90
5130;DHT22;2583;50.946;6.954;2023-07-31T06:16:22;19.30;99.90
5130;DHT22;2583;50.946;6.954;2023-07-31T06:18:49;19.20;99.90
5130;DHT22;2583;50.946;6.954;2023-07-31T06:21:16;19.20;99.90
5130;DHT22;2583;50.946;6.954;2023-07-31T06:23:43;19.20;99.90
5130;DHT22;2583;50.946;6.954;2023-07-31T06:26:10;19.10;99.90
5130;DHT22;2583;50.946;6.954;2023-07-31T06:28:36;19.20;99.90
5130;DHT22;2583;50.946;6.954;2023-07-31T06:31:03;19.20;99.90
5130;DHT22;2583;50.946;6.954;2023-07-31T06:33:30;19.20;99.90
5130;DHT22;2583;50.946;6.954;2023-07-31T06:35:57;19.20;99.90
5130;DHT22;2583;50.946;6.954;2023-07-31T06:38:25;19.10;99.90
5130;DHT22;2583;50.946;6.954;2023-07-31T06:40:52;19.10;99.90
5130;DHT22;2583;50.946;6.954;2023-07-31T06:43:19;19.10;99.90
5130;DHT22;2583;50.946;6.954;2023-07-31T06:45:46;19.10;99.90
5130;DHT22;2583;50.946;6.954;2023-07-31T06:48:15;19.20;99.90
5130;DHT22;2583;50.946;6.954;2023-07-31T06:50:41;19.30;99.90
5130;DHT22;2583;50.946;6.954;2023-07-31T06:53:08;19.40;99.90
5130;DHT22;2583;50.946;6.954;2023-07-31T06:55:35;19.50;99.90
5130;DHT22;2583;50.946;6.954;2023-07-31T06:58:02;19.50;99.90
5130;DHT22;2583;50.946;6.954;2023-07-31T07:00:28;19.70;99.90
5130;DHT22;2583;50.946;6.954;2023-07-31T07:02:55;19.70;99.90
5130;DHT22;2583;50.946;6.954;2023-07-31T07:05:22;19.80;99.90
5130;DHT22;2583;50.946;6.954;2023-07-31T07:07:50;19.90;99.90
5130;DHT22;2583;50.946;6.954;2023-07-31T07:10:18;19.90;99.90
5130;DHT22;2583;50.946;6.954;2023-07-31T07:12:46;19.80;99.90
5130;DHT22;2583;50.946;6.954;2023-07-31T07:15:12;19.80;99.90
5130;DHT22;2583;50.946;6.954;2023-07-31T07:17:39;19.70;99.90
5130;DHT22;2583;50.946;6.954;2023-07-31T07:20:07;19.70;99.90
5130;DHT22;2583;50.946;6.954;2023-07-31T07:22:34;19.70;99.90
5130;DHT22;2583;50.946;6.954;2023-07-31T07:25:01;19.70;99.90
5130;DHT22;2583;50.946;6.954;2023-07-31T07:27:28;19.70;99.90
5130;DHT22;2583;50.946;6.954;2023-07-31T07:29:55;19.70;99.90
5130;DHT22;2583;50.946;6.954;2023-07-31T07:32:22;19.70;99.90
5130;DHT22;2583;50.946;6.954;2023-07-31T07:34:49;19.70;99.90
5130;DHT22;2583;50.946;6.954;2023-07-31T07:37:16;19.60;99.90
5130;DHT22;2583;50.946;6.954;2023-07-31T07:39:44;19.50;99.90
5130;DHT22;2583;50.946;6.954;2023-07-31T07:42:11;19.50;99.90
5130;DHT22;2583;50.946;6.954;2023-07-31T07:44:37;19.50;99.90
5130;DHT22;2583;50.946;6.954;2023-07-31T07:47:04;19.40;99.90
5130;DHT22;2583;50.946;6.954;2023-07-31T07:49:36;19.50;99.90
5130;DHT22;2583;50.946;6.954;2023-07-31T07:52:03;19.50;99.90
5130;DHT22;2583;50.946;6.954;2023-07-31T07:54:30;19.50;99.90
5130;DHT22;2583;50.946;6.954;2023-07-31T07:56:58;19.50;99.90
5130;DHT22;2583;50.946;6.954;2023-07-31T07:59:24;19.40;99.90
5130;DHT22;2583;50.946;6.954;2023-07-31T08:01:51;19.40;99.90
5130;DHT22;2583;50.946;6.954;2023-07-31T08:04:18;19.40;99.90
5130;DHT22;2583;50.946;6.954;2023-07-31T08:06:45;19.40;99.90
5130;DHT22;2583;50.946;6.954;2023-07-31T08:09:12;19.30;99.90
5130;DHT22;2583;50.946;6.954;2023-07-31T08:11:38;19.20;99.90
5130;DHT22;2583;50.946;6.954;2023-07-31T08:14:05;19.20;99.90
5130;DHT22;2583;50.946;6.954;2023-07-31T08:16:32;19.30;99.90
5130;DHT22;2583;50.946;6.954;2023-07-31T08:18:59;19.30;99.90
5130;DHT22;2583;50.946;6.954;2023-07-31T08:21:26;19.20;99.90
5130;DHT22;2583;50.946;6.954;2023-07-31T08:23:53;19.20;99.90
5130;DHT22;2583;50.946;6.954;2023-07-31T08:26:20;19.20;99.90
5130;DHT22;2583;50.946;6.954;2023-07-31T08:28:47;19.20;99.90
5130;DHT22;2583;50.946;6.954;2023-07-31T08:31:14;19.10;99.90
5130;DHT22;2583;50.946;6.954;2023-07-31T08:33:41;19.10;99.90
5130;DHT22;2583;50.946;6.954;2023-07-31T08:36:08;19.10;99.90
5130;DHT22;2583;50.946;6.954;2023-07-31T08:38:34;19.20;99.90
5130;DHT22;2583;50.946;6.954;2023-07-31T08:41:03;19.30;99.90
5130;DHT22;2583;50.946;6.954;2023-07-31T08:43:31;19.30;99.90
5130;DHT22;2583;50.946;6.954;2023-07-31T08:45:59;19.30;99.90
5130;DHT22;2583;50.946;6.954;2023-07-31T08:48:26;19.30;99.90
5130;DHT22;2583;50.946;6.954;2023-07-31T08:50:54;19.30;99.90
5130;DHT22;2583;50.946;6.954;2023-07-31T08:53:21;19.30;99.90
5130;DHT22;2583;50.946;6.954;2023-07-31T08:55:49;19.20;99.90
5130;DHT22;2583;50.946;6.954;2023-07-31T08:58:17;19.20;99.90
5130;DHT22;2583;50.946;6.954;2023-07-31T09:00:46;19.30;99.90
5130;DHT22;2583;50.946;6.954;2023-07-31T09:03:15;19.30;99.90
5130;DHT22;2583;50.946;6.954;2023-07-31T09:05:46;19.30;99.90
5130;DHT22;2583;50.946;6.954;2023-07-31T09:08:15;19.40;99.90
5130;DHT22;2583;50.946;6.954;2023-07-31T09:10:45;19.50;99.90
5130;DHT22;2583;50.946;6.954;2023-07-31T09:13:16;19.40;99.90
5130;DHT22;2583;50.946;6.954;2023-07-31T09:15:45;19.50;99.90
5130;DHT22;2583;50.946;6.954;2023-07-31T09:18:12;19.60;99.90
5130;DHT22;2583;50.946;6.954;2023-07-31T09:20:40;19.60;99.90
5130;DHT22;2583;50.946;6.954;2023-07-31T09:23:12;19.60;99.90
5130;DHT22;2583;50.946;6.954;2023-07-31T09:25:40;19.50;99.90
5130;DHT22;2583;50.946;6.954;2023-07-31T09:28:10;19.50;99.90
5130;DHT22;2583;50.946;6.954;2023-07-31T09:30:49;19.50;99.90
5130;DHT22;2583;50.946;6.954;2023-07-31T09:33:17;19.60;99.90
5130;DHT22;2583;50.946;6.954;2023-07-31T09:35:44;19.60;99.90
5130;DHT22;2583;50.946;6.954;2023-07-31T09:38:13;19.70;99.90
5130;DHT22;2583;50.946;6.954;2023-07-31T09:40:42;19.70;99.90
5130;DHT22;2583;50.946;6.954;2023-07-31T09:43:11;19.80;99.90
5130;DHT22;2583;50.946;6.954;2023-07-31T09:45:40;19.80;99.90
5130;DHT22;2583;50.946;6.954;2023-07-31T09:48:11;19.90;99.90
5130;DHT22;2583;50.946;6.954;2023-07-31T09:50:40;20.10;99.90
5130;DHT22;2583;50.946;6.954;2023-07-31T09:53:08;20.20;99.90
5130;DHT22;2583;50.946;6.954;2023-07-31T09:55:37;20.40;99.90
5130;DHT22;2583;50.946;6.954;2023-07-31T09:58:09;20.50;99.90
5130;DHT22;2583;50.946;6.954;2023-07-31T10:00:36;20.50;99.90
5130;DHT22;2583;50.946;6.954;2023-07-31T10:03:07;20.50;99.90
5130;DHT22;2583;50.946;6.954;2023-07-31T10:05:42;20.60;99.90
5130;DHT22;2583;50.946;6.954;2023-07-31T10:08:10;20.70;99.90
5130;DHT22;2583;50.946;6.954;2023-07-31T10:10:43;20.70;99.90
5130;DHT22;2583;50.946;6.954;2023-07-31T10:13:11;20.80;99.90
5130;DHT22;2583;50.946;6.954;2023-07-31T10:15:38;20.80;99.90
5130;DHT22;2583;50.946;6.954;2023-07-31T10:18:07;20.70;99.90
5130;DHT22;2583;50.946;6.954;2023-07-31T10:20:35;20.60;99.90
5130;DHT22;2583;50.946;6.954;2023-07-31T10:23:02;20.70;99.90
5130;DHT22;2583;50.946;6.954;2023-07-31T10:25:30;20.70;99.90
5130;DHT22;2583;50.946;6.954;2023-07-31T10:27:58;20.70;99.90
5130;DHT22;2583;50.946;6.954;2023-07-31T10:30:29;20.80;99.90
5130;DHT22;2583;50.946;6.954;2023-07-31T10:32:56;20.80;99.90
5130;DHT22;2583;50.946;6.954;2023-07-31T10:35:24;20.90;99.90
5130;DHT22;2583;50.946;6.954;2023-07-31T10:37:52;20.90;99.90
5130;DHT22;2583;50.946;6.954;2023-07-31T10:40:23;20.90;99.90
5130;DHT22;2583;50.946;6.954;2023-07-31T10:42:57;21.00;99.90
5130;DHT22;2583;50.946;6.954;2023-07-31T10:45:39;21.00;99.90
5130;DHT22;2583;50.946;6.954;2023-07-31T10:48:16;20.90;99.90
5130;DHT22;2583;50.946;6.954;2023-07-31T10:50:55;20.90;99.90
5130;DHT22;2583;50.946;6.954;2023-07-31T10:53:30;21.00;99.90
5130;DHT22;2583;50.946;6.954;2023-07-31T10:56:08;21.10;99.90
5130;DHT22;2583;50.946;6.954;2023-07-31T10:58:36;21.10;99.90
5130;DHT22;2583;50.946;6.954;2023-07-31T11:01:05;21.10;99.90
5130;DHT22;2583;50.946;6.954;2023-07-31T11:06:09;21.30;99.90
5130;DHT22;2583;50.946;6.954;2023-07-31T11:08:42;21.40;99.90
5130;DHT22;2583;50.946;6.954;2023-07-31T11:11:14;21.30;99.90
5130;DHT22;2583;50.946;6.954;2023-07-31T11:16:10;21.00;99.90
5130;DHT22;2583;50.946;6.954;2023-07-31T11:18:39;20.90;99.90
5130;DHT22;2583;50.946;6.954;2023-07-31T11:21:08;21.00;99.90
5130;DHT22;2583;50.946;6.954;2023-07-31T11:23:38;21.00;99.90
5130;DHT22;2583;50.946;6.954;2023-07-31T11:26:06;21.00;99.90
5130;DHT22;2583;50.946;6.954;2023-07-31T11:28:34;21.10;99.90
5130;DHT22;2583;50.946;6.954;2023-07-31T11:31:02;21.10;99.90
5130;DHT22;2583;50.946;6.954;2023-07-31T11:33:29;21.20;99.90
5130;DHT22;2583;50.946;6.954;2023-07-31T11:35:57;21.30;99.90
5130;DHT22;2583;50.946;6.954;2023-07-31T11:38:31;21.50;99.90
5130;DHT22;2583;50.946;6.954;2023-07-31T11:41:03;21.70;99.90
5130;DHT22;2583;50.946;6.954;2023-07-31T11:43:31;22.00;99.80
5130;DHT22;2583;50.946;6.954;2023-07-31T11:45:59;22.10;96.00
5130;DHT22;2583;50.946;6.954;2023-07-31T11:48:34;22.30;97.80
5130;DHT22;2583;50.946;6.954;2023-07-31T11:51:04;22.30;94.00
5130;DHT22;2583;50.946;6.954;2023-07-31T11:53:42;22.20;92.50
5130;DHT22;2583;50.946;6.954;2023-07-31T11:56:11;22.10;93.30
5130;DHT22;2583;50.946;6.954;2023-07-31T11:58:40;22.10;93.40
5130;DHT22;2583;50.946;6.954;2023-07-31T12:01:09;22.00;93.00
5130;DHT22;2583;50.946;6.954;2023-07-31T12:03:38;22.00;94.80
5130;DHT22;2583;50.946;6.954;2023-07-31T12:06:05;21.90;96.40
5130;DHT22;2583;50.946;6.954;2023-07-31T12:08:31;21.70;97.60
5130;DHT22;2583;50.946;6.954;2023-07-31T12:11:04;21.70;98.40
5130;DHT22;2583;50.946;6.954;2023-07-31T12:13:32;21.70;98.80
5130;DHT22;2583;50.946;6.954;2023-07-31T12:16:01;21.60;99.00
5130;DHT22;2583;50.946;6.954;2023-07-31T12:18:34;21.60;99.90
5130;DHT22;2583;50.946;6.954;2023-07-31T12:21:02;21.60;99.90
5130;DHT22;2583;50.946;6.954;2023-07-31T12:23:31;21.50;99.90
5130;DHT22;2583;50.946;6.954;2023-07-31T12:28:42;21.50;99.90
5130;DHT22;2583;50.946;6.954;2023-07-31T12:31:11;21.60;99.90
5130;DHT22;2583;50.946;6.954;2023-07-31T12:33:41;21.60;99.90
5130;DHT22;2583;50.946;6.954;2023-07-31T12:36:26;21.50;99.90
5130;DHT22;2583;50.946;6.954;2023-07-31T12:38:54;21.60;99.90
5130;DHT22;2583;50.946;6.954;2023-07-31T12:41:23;21.50;99.90
5130;DHT22;2583;50.946;6.954;2023-07-31T12:43:50;21.60;99.90
5130;DHT22;2583;50.946;6.954;2023-07-31T12:46:16;21.70;99.90
5130;DHT22;2583;50.946;6.954;2023-07-31T12:48:43;21.70;99.20
5130;DHT22;2583;50.946;6.954;2023-07-31T12:51:10;21.70;98.60
5130;DHT22;2583;50.946;6.954;2023-07-31T12:53:37;21.60;99.00
5130;DHT22;2583;50.946;6.954;2023-07-31T12:56:04;21.60;99.50
5130;DHT22;2583;50.946;6.954;2023-07-31T12:58:31;21.50;99.50
5130;DHT22;2583;50.946;6.954;2023-07-31T13:00:58;21.60;99.90
5130;DHT22;2583;50.946;6.954;2023-07-31T13:03:24;21.60;99.90
5130;DHT22;2583;50.946;6.954;2023-07-31T13:05:52;21.60;99.90
5130;DHT22;2583;50.946;6.954;2023-07-31T13:08:19;21.70;99.90
5130;DHT22;2583;50.946;6.954;2023-07-31T13:10:46;21.80;99.90
5130;DHT22;2583;50.946;6.954;2023-07-31T13:13:13;21.90;99.70
5130;DHT22;2583;50.946;6.954;2023-07-31T13:15:39;22.00;99.10
5130;DHT22;2583;50.946;6.954;2023-07-31T13:18:07;21.90;97.90
5130;DHT22;2583;50.946;6.954;2023-07-31T13:20:33;21.90;98.10
5130;DHT22;2583;50.946;6.954;2023-07-31T13:23:00;21.80;98.50
5130;DHT22;2583;50.946;6.954;2023-07-31T13:25:27;21.80;98.50
5130;DHT22;2583;50.946;6.954;2023-07-31T13:27:55;21.90;98.60
5130;DHT22;2583;50.946;6.954;2023-07-31T13:30:22;21.80;98.70
5130;DHT22;2583;50.946;6.954;2023-07-31T13:32:49;21.90;98.10
5130;DHT22;2583;50.946;6.954;2023-07-31T13:35:16;21.90;96.00
5130;DHT22;2583;50.946;6.954;2023-07-31T13:37:43;22.10;95.20
5130;DHT22;2583;50.946;6.954;2023-07-31T13:40:10;22.10;93.70
5130;DHT22;2583;50.946;6.954;2023-07-31T13:42:37;22.20;93.50
5130;DHT22;2583;50.946;6.954;2023-07-31T13:45:04;22.20;92.30
5130;DHT22;2583;50.946;6.954;2023-07-31T13:47:33;22.30;92.10
5130;DHT22;2583;50.946;6.954;2023-07-31T13:50:01;22.40;91.30
5130;DHT22;2583;50.946;6.954;2023-07-31T13:52:28;22.50;90.40
5130;DHT22;2583;50.946;6.954;2023-07-31T13:54:55;22.70;88.70
5130;DHT22;2583;50.946;6.954;2023-07-31T13:57:21;22.90;85.20
5130;DHT22;2583;50.946;6.954;2023-07-31T13:59:50;23.00;84.00
5130;DHT22;2583;50.946;6.954;2023-07-31T14:02:16;23.50;76.20
5130;DHT22;2583;50.946;6.954;2023-07-31T14:04:43;23.80;71.40
5130;DHT22;2583;50.946;6.954;2023-07-31T14:07:10;24.20;57.90
5130;DHT22;2583;50.946;6.954;2023-07-31T14:09:37;24.40;53.30
5130;DHT22;2583;50.946;6.954;2023-07-31T14:12:04;24.10;51.60
5130;DHT22;2583;50.946;6.954;2023-07-31T14:14:31;24.10;52.00
5130;DHT22;2583;50.946;6.954;2023-07-31T14:17:01;24.00;51.20
5130;DHT22;2583;50.946;6.954;2023-07-31T14:19:29;23.90;51.60
5130;DHT22;2583;50.946;6.954;2023-07-31T14:21:58;23.90;52.60
5130;DHT22;2583;50.946;6.954;2023-07-31T14:24:37;23.80;55.00
5130;DHT22;2583;50.946;6.954;2023-07-31T14:27:04;23.40;55.80
5130;DHT22;2583;50.946;6.954;2023-07-31T14:29:31;23.10;59.80
5130;DHT22;2583;50.946;6.954;2023-07-31T14:31:58;22.80;64.40
5130;DHT22;2583;50.946;6.954;2023-07-31T14:34:26;22.70;70.10
5130;DHT22;2583;50.946;6.954;2023-07-31T14:36:53;22.60;75.10
5130;DHT22;2583;50.946;6.954;2023-07-31T14:39:20;22.40;78.20
5130;DHT22;2583;50.946;6.954;2023-07-31T14:41:46;22.20;82.60
5130;DHT22;2583;50.946;6.954;2023-07-31T14:44:15;22.00;85.60
5130;DHT22;2583;50.946;6.954;2023-07-31T14:46:41;22.10;87.50
5130;DHT22;2583;50.946;6.954;2023-07-31T14:49:09;22.10;88.90
5130;DHT22;2583;50.946;6.954;2023-07-31T14:51:36;22.10;87.50
5130;DHT22;2583;50.946;6.954;2023-07-31T14:54:02;22.00;85.70
5130;DHT22;2583;50.946;6.954;2023-07-31T14:56:29;22.00;87.30
5130;DHT22;2583;50.946;6.954;2023-07-31T14:58:56;22.00;86.80
5130;DHT22;2583;50.946;6.954;2023-07-31T15:01:23;22.00;87.40
5130;DHT22;2583;50.946;6.954;2023-07-31T15:03:50;21.90;87.10
5130;DHT22;2583;50.946;6.954;2023-07-31T15:06:17;21.90;87.10
5130;DHT22;2583;50.946;6.954;2023-07-31T15:08:44;21.90;88.00
5130;DHT22;2583;50.946;6.954;2023-07-31T15:11:11;21.90;87.80
5130;DHT22;2583;50.946;6.954;2023-07-31T15:13:37;21.90;88.80
5130;DHT22;2583;50.946;6.954;2023-07-31T15:16:04;21.80;88.60
5130;DHT22;2583;50.946;6.954;2023-07-31T15:18:31;21.70;89.00
5130;DHT22;2583;50.946;6.954;2023-07-31T15:20:58;21.80;90.10
5130;DHT22;2583;50.946;6.954;2023-07-31T15:23:24;21.80;88.30
5130;DHT22;2583;50.946;6.954;2023-07-31T15:25:52;21.90;88.00
5130;DHT22;2583;50.946;6.954;2023-07-31T15:28:19;21.80;89.70
5130;DHT22;2583;50.946;6.954;2023-07-31T15:30:46;21.80;90.50
5130;DHT22;2583;50.946;6.954;2023-07-31T15:33:15;21.70;90.50
5130;DHT22;2583;50.946;6.954;2023-07-31T15:35:41;21.60;90.60
5130;DHT22;2583;50.946;6.954;2023-07-31T15:38:09;21.60;90.80
5130;DHT22;2583;50.946;6.954;2023-07-31T15:40:38;21.60;90.60
5130;DHT22;2583;50.946;6.954;2023-07-31T15:43:05;21.60;90.80
5130;DHT22;2583;50.946;6.954;2023-07-31T15:45:32;21.60;90.80
5130;DHT22;2583;50.946;6.954;2023-07-31T15:47:59;21.60;90.60
5130;DHT22;2583;50.946;6.954;2023-07-31T15:50:26;21.60;91.10
5130;DHT22;2583;50.946;6.954;2023-07-31T15:52:52;21.60;91.00
5130;DHT22;2583;50.946;6.954;2023-07-31T15:55:19;21.50;92.00
5130;DHT22;2583;50.946;6.954;2023-07-31T15:57:48;21.50;94.30
5130;DHT22;2583;50.946;6.954;2023-07-31T16:00:15;21.40;97.30
5130;DHT22;2583;50.946;6.954;2023-07-31T16:02:42;21.40;97.60
5130;DHT22;2583;50.946;6.954;2023-07-31T16:05:09;21.30;97.00
5130;DHT22;2583;50.946;6.954;2023-07-31T16:07:36;21.20;99.30
5130;DHT22;2583;50.946;6.954;2023-07-31T16:10:03;21.20;99.90
5130;DHT22;2583;50.946;6.954;2023-07-31T16:12:31;21.10;99.60
5130;DHT22;2583;50.946;6.954;2023-07-31T16:14:58;21.00;99.90
5130;DHT22;2583;50.946;6.954;2023-07-31T16:17:25;21.00;99.90
5130;DHT22;2583;50.946;6.954;2023-07-31T16:19:52;21.00;99.90
5130;DHT22;2583;50.946;6.954;2023-07-31T16:22:19;20.90;99.90
5130;DHT22;2583;50.946;6.954;2023-07-31T16:24:46;20.90;99.90